createdAt,value
2023-09-22T00:03:44.582Z,96498.09
2023-09-22T00:07:47.090Z,96494.50
2023-09-22T00:11:49.475Z,96496.91
2023-09-22T00:15:51.597Z,96515.13
2023-09-22T00:19:53.727Z,96508.47
2023-09-22T00:23:55.786Z,96506.38
2023-09-22T00:27:57.979Z,96505.66
2023-09-22T00:32:00.210Z,96511.22
2023-09-22T00:36:03.638Z,96509.00
2023-09-22T00:40:09.883Z,96520.22
2023-09-22T00:44:12.877Z,96534.22
2023-09-22T00:48:22.722Z,96549.19
2023-09-22T00:52:26.955Z,96546.09
2023-09-22T00:56:29.937Z,96530.75
2023-09-22T01:00:32.967Z,96516.88
2023-09-22T01:04:35.457Z,96489.75
2023-09-22T01:08:38.210Z,96508.63
2023-09-22T01:12:40.332Z,96520.41
2023-09-22T01:16:43.397Z,96538.19
2023-09-22T01:20:46.682Z,96547.31
2023-09-22T01:24:48.817Z,96552.50
2023-09-22T01:28:51.939Z,96534.16
2023-09-22T01:32:54.020Z,96541.06
2023-09-22T01:36:56.160Z,96550.72
2023-09-22T01:40:59.312Z,96547.63
2023-09-22T01:45:02.699Z,96547.91
2023-09-22T01:49:04.801Z,96532.56
2023-09-22T01:53:11.086Z,96539.91
2023-09-22T01:57:14.408Z,96530.25
2023-09-22T02:01:16.508Z,96533.66
2023-09-22T02:05:19.946Z,96563.41
2023-09-22T02:09:22.374Z,96555.88
2023-09-22T02:13:24.544Z,96569.44
2023-09-22T02:17:27.096Z,96559.13
2023-09-22T02:21:29.232Z,96554.13
2023-09-22T02:25:31.336Z,96562.16
2023-09-22T02:29:33.587Z,96575.34
2023-09-22T02:33:35.669Z,96609.16
2023-09-22T02:37:38.009Z,96590.59
2023-09-22T02:41:40.057Z,96557.78
2023-09-22T02:45:43.198Z,96555.38
2023-09-22T02:49:45.479Z,96560.19
2023-09-22T02:53:48.510Z,96555.41
2023-09-22T02:57:51.619Z,96548.34
2023-09-22T03:01:54.847Z,96568.72
2023-09-22T03:06:00.421Z,96555.66
2023-09-22T03:10:07.470Z,96549.78
2023-09-22T03:14:09.730Z,96537.13
2023-09-22T03:18:12.240Z,96541.78
2023-09-22T03:22:14.550Z,96552.69
2023-09-22T03:26:17.085Z,96565.53
2023-09-22T03:30:19.449Z,96561.69
2023-09-22T03:34:22.424Z,96588.53
2023-09-22T03:38:26.968Z,96594.16
2023-09-22T03:42:29.143Z,96578.69
2023-09-22T03:46:32.611Z,96570.06
2023-09-22T03:50:34.739Z,96577.72
2023-09-22T03:54:37.247Z,96579.28
2023-09-22T03:58:41.028Z,96575.81
2023-09-22T04:02:43.197Z,96564.69
2023-09-22T04:06:46.189Z,96580.72
2023-09-22T04:10:48.264Z,96590.06
2023-09-22T04:14:50.309Z,96599.75
2023-09-22T04:18:55.371Z,96602.63
2023-09-22T04:22:59.406Z,96631.38
2023-09-22T04:27:06.825Z,96647.19
2023-09-22T04:31:12.560Z,96641.31
2023-09-22T04:35:14.897Z,96648.41
2023-09-22T04:39:17.581Z,96651.16
2023-09-22T04:43:19.756Z,96640.59
2023-09-22T04:47:22.117Z,96639.50
2023-09-22T04:51:24.203Z,96633.50
2023-09-22T04:55:26.522Z,96646.72
2023-09-22T04:59:29.263Z,96638.81
2023-09-22T05:03:31.983Z,96637.38
2023-09-22T05:07:34.763Z,96629.72
2023-09-22T05:11:37.760Z,96632.56
2023-09-22T05:15:42.937Z,96618.91
2023-09-22T05:19:45.810Z,96622.75
2023-09-22T05:23:52.470Z,96624.69
2023-09-22T05:31:56.655Z,96639.69
2023-09-22T05:35:59.142Z,96628.41
2023-09-22T05:40:01.234Z,96627.97
2023-09-22T05:44:03.460Z,96641.16
2023-09-22T05:48:06.175Z,96668.00
2023-09-22T05:52:08.799Z,96687.66
2023-09-22T05:56:12.243Z,96700.63
2023-09-22T06:00:18.034Z,96690.31
2023-09-22T06:04:20.347Z,96706.13
2023-09-22T06:08:22.447Z,96707.56
2023-09-22T06:12:24.491Z,96710.91
2023-09-22T06:16:27.095Z,96699.41
2023-09-22T06:20:29.267Z,96663.09
2023-09-22T06:24:31.355Z,96672.06
2023-09-22T06:28:36.496Z,96682.16
2023-09-22T06:32:41.922Z,96677.34
2023-09-22T06:36:44.049Z,96681.88
2023-09-22T06:40:46.373Z,96695.28
2023-09-22T06:44:48.428Z,96712.97
2023-09-22T06:48:50.520Z,96732.03
2023-09-22T06:52:52.602Z,96731.41
2023-09-22T06:56:55.434Z,96726.38
2023-09-22T07:00:57.817Z,96718.63
2023-09-22T07:05:00.045Z,96735.06
2023-09-22T07:09:02.078Z,96737.63
2023-09-22T07:13:04.908Z,96739.72
2023-09-22T07:17:07.034Z,96762.78
2023-09-22T07:21:12.178Z,96765.91
2023-09-22T07:25:15.343Z,96748.19
2023-09-22T07:29:18.985Z,96744.84
2023-09-22T07:33:22.139Z,96756.94
2023-09-22T07:37:24.654Z,96759.09
2023-09-22T07:41:26.777Z,96769.66
2023-09-22T07:45:30.105Z,96772.16
2023-09-22T07:49:32.259Z,96769.13
2023-09-22T07:53:34.768Z,96779.56
2023-09-22T07:57:36.944Z,96795.94
2023-09-22T08:01:39.031Z,96796.50
2023-09-22T08:05:41.307Z,96784.00
2023-09-22T08:09:43.570Z,96773.50
2023-09-22T08:13:49.035Z,96768.97
2023-09-22T08:17:51.417Z,96769.44
2023-09-22T08:21:53.560Z,96795.09
2023-09-22T08:25:57.457Z,96791.41
2023-09-22T08:29:59.642Z,96787.97
2023-09-22T08:34:03.428Z,96766.00
2023-09-22T08:38:06.168Z,96758.00
2023-09-22T08:42:08.675Z,96771.34
2023-09-22T08:46:12.916Z,96775.19
2023-09-22T08:50:19.377Z,96773.25
2023-09-22T08:54:21.549Z,96781.31
2023-09-22T08:58:23.583Z,96788.88
2023-09-22T09:02:26.898Z,96797.81
2023-09-22T09:06:46.222Z,96786.53
2023-09-22T09:10:49.637Z,96781.84
2023-09-22T09:14:59.200Z,96790.53
2023-09-22T09:19:17.110Z,96786.78
2023-09-22T09:23:20.928Z,96771.59
2023-09-22T09:27:23.092Z,96761.81
2023-09-22T09:31:43.669Z,96782.22
2023-09-22T09:35:51.121Z,96782.75
2023-09-22T09:39:57.119Z,96779.56
2023-09-22T09:44:04.754Z,96771.03
2023-09-22T09:48:11.204Z,96772.97
2023-09-22T09:52:17.120Z,96785.78
2023-09-22T09:56:19.801Z,96789.66
2023-09-22T10:00:22.280Z,96794.66
2023-09-22T10:04:25.354Z,96789.69
2023-09-22T10:08:28.216Z,96786.91
2023-09-22T10:12:31.620Z,96776.75
2023-09-22T10:16:34.008Z,96768.13
2023-09-22T10:20:46.996Z,96769.94
2023-09-22T10:25:34.768Z,96780.25
2023-09-22T10:29:46.683Z,96783.31
2023-09-22T10:33:48.946Z,96785.09
2023-09-22T10:38:03.386Z,96796.38
2023-09-22T10:42:07.358Z,96802.53
2023-09-22T10:46:18.287Z,96811.06
2023-09-22T10:50:22.441Z,96823.94
2023-09-22T10:54:24.499Z,96820.72
2023-09-22T10:58:27.689Z,96833.31
2023-09-22T11:02:30.128Z,96826.59
2023-09-22T11:06:46.226Z,96822.69
2023-09-22T11:10:50.415Z,96826.72
2023-09-22T11:14:53.057Z,96812.06
2023-09-22T11:19:06.222Z,96816.44
2023-09-22T11:23:08.371Z,96810.44
2023-09-22T11:27:11.602Z,96813.09
2023-09-22T11:31:16.104Z,96821.72
2023-09-22T11:35:41.621Z,96814.06
2023-09-22T11:39:44.176Z,96816.84
2023-09-22T11:43:50.491Z,96804.44
2023-09-22T11:48:05.181Z,96814.72
2023-09-22T11:52:07.338Z,96816.25
2023-09-22T11:56:09.418Z,96818.31
2023-09-22T12:00:15.084Z,96807.16
2023-09-22T12:04:19.921Z,96809.97
2023-09-22T12:08:22.301Z,96808.31
2023-09-22T12:12:24.357Z,96804.28
2023-09-22T12:16:26.483Z,96806.94
2023-09-22T12:20:28.662Z,96801.56
2023-09-22T12:24:30.777Z,96789.41
2023-09-22T12:28:32.803Z,96783.66
2023-09-22T12:32:34.990Z,96775.53
2023-09-22T12:36:37.170Z,96771.28
2023-09-22T12:40:39.455Z,96774.22
2023-09-22T12:44:41.733Z,96770.34
2023-09-22T12:48:43.764Z,96772.56
2023-09-22T12:52:45.972Z,96771.00
2023-09-22T12:56:48.050Z,96771.34
2023-09-22T13:00:50.540Z,96785.34
2023-09-22T13:04:52.598Z,96788.78
2023-09-22T13:08:55.730Z,96799.66
2023-09-22T13:12:57.806Z,96783.69
2023-09-22T13:16:59.969Z,96780.41
2023-09-22T13:21:02.905Z,96776.34
2023-09-22T13:25:06.150Z,96785.88
2023-09-22T13:29:08.219Z,96774.16
2023-09-22T13:33:12.344Z,96779.94
2023-09-22T13:37:14.519Z,96783.69
2023-09-22T13:41:17.457Z,96784.50
2023-09-22T13:45:19.858Z,96779.84
2023-09-22T13:49:22.865Z,96781.63
2023-09-22T13:53:24.970Z,96771.66
2023-09-22T13:57:27.117Z,96769.41
2023-09-22T14:01:29.331Z,96760.97
2023-09-22T14:05:33.135Z,96759.94
2023-09-22T14:09:36.113Z,96755.25
2023-09-22T14:13:38.482Z,96748.59
2023-09-22T14:17:40.850Z,96745.34
2023-09-22T14:21:43.058Z,96746.25
2023-09-22T14:25:46.944Z,96745.25
2023-09-22T14:29:49.130Z,96739.63
2023-09-22T14:33:52.725Z,96742.66
2023-09-22T14:37:56.647Z,96748.66
2023-09-22T14:42:00.102Z,96751.69
2023-09-22T14:46:02.450Z,96742.78
2023-09-22T14:50:06.440Z,96753.22
2023-09-22T14:54:08.517Z,96747.56
2023-09-22T14:58:10.627Z,96753.03
2023-09-22T15:02:13.729Z,96750.47
2023-09-22T15:06:17.387Z,96758.09
2023-09-22T15:10:19.484Z,96753.47
2023-09-22T15:14:21.568Z,96766.41
2023-09-22T15:18:25.104Z,96766.34
2023-09-22T15:22:29.726Z,96768.63
2023-09-22T15:26:31.806Z,96777.28
2023-09-22T15:30:34.120Z,96778.91
2023-09-22T15:34:36.241Z,96786.69
2023-09-22T15:38:39.370Z,96778.31
2023-09-22T15:42:41.438Z,96784.78
2023-09-22T15:46:43.632Z,96778.53
2023-09-22T15:50:45.767Z,96788.19
2023-09-22T15:54:47.954Z,96778.84
2023-09-22T15:58:50.085Z,96782.88
2023-09-22T16:02:52.898Z,96784.88
2023-09-22T16:06:55.061Z,96788.09
2023-09-22T16:10:57.167Z,96790.50
2023-09-22T16:14:59.267Z,96784.06
2023-09-22T16:19:01.326Z,96793.31
2023-09-22T16:23:03.572Z,96793.06
2023-09-22T16:27:05.837Z,96793.06
2023-09-22T16:31:08.720Z,96800.50
2023-09-22T16:35:10.823Z,96794.78
2023-09-22T16:39:12.885Z,96787.25
2023-09-22T16:43:15.032Z,96787.78
2023-09-22T16:47:17.476Z,96781.94
2023-09-22T16:51:19.604Z,96776.34
2023-09-22T16:55:23.122Z,96788.50
2023-09-22T16:59:26.557Z,96791.59
2023-09-22T17:03:28.769Z,96782.09
2023-09-22T17:07:31.086Z,96787.50
2023-09-22T17:11:33.209Z,96775.34
2023-09-22T17:15:39.721Z,96786.38
2023-09-22T17:19:41.941Z,96795.88
2023-09-22T17:23:44.075Z,96860.97
2023-09-22T17:27:46.120Z,96861.56
2023-09-22T17:31:48.288Z,96874.31
2023-09-22T17:35:50.490Z,96880.94
2023-09-22T17:39:52.853Z,96887.88
2023-09-22T17:43:55.057Z,96893.34
2023-09-22T17:47:57.276Z,96894.06
2023-09-22T17:51:59.791Z,96888.94
2023-09-22T17:56:05.919Z,96892.19
2023-09-22T18:00:09.653Z,96894.59
2023-09-22T18:04:14.751Z,96907.59
2023-09-22T18:08:17.834Z,96912.16
2023-09-22T18:12:19.924Z,96897.88
2023-09-22T18:16:23.860Z,96905.94
2023-09-22T18:20:26.025Z,96915.50
2023-09-22T18:24:28.091Z,96926.91
2023-09-22T18:28:30.227Z,96922.88
2023-09-22T18:32:32.617Z,96925.72
2023-09-22T18:36:35.335Z,96924.97
2023-09-22T18:40:37.424Z,96914.91
2023-09-22T18:44:39.477Z,96910.31
2023-09-22T18:48:42.315Z,96927.75
2023-09-22T18:52:45.086Z,96931.06
2023-09-22T18:56:47.159Z,96939.13
2023-09-22T19:00:49.788Z,96944.31
2023-09-22T19:04:51.959Z,96948.38
2023-09-22T19:08:55.185Z,96960.69
2023-09-22T19:12:58.502Z,96969.13
2023-09-22T19:17:01.005Z,96987.47
2023-09-22T19:21:07.639Z,96982.13
2023-09-22T19:25:09.945Z,96997.81
2023-09-22T19:29:12.038Z,97004.66
2023-09-22T19:33:14.277Z,97013.81
2023-09-22T19:37:16.774Z,97021.28
2023-09-22T19:41:20.514Z,97033.16
2023-09-22T19:45:22.741Z,97027.50
2023-09-22T19:49:24.867Z,97037.16
2023-09-22T19:53:30.473Z,97039.47
2023-09-22T19:57:32.774Z,97047.75
2023-09-22T20:01:35.085Z,97051.53
2023-09-22T20:05:37.837Z,97051.94
2023-09-22T20:09:39.911Z,97054.97
2023-09-22T20:13:42.072Z,97059.06
2023-09-22T20:17:44.395Z,97055.25
2023-09-22T20:21:47.097Z,97052.31
2023-09-22T20:25:49.186Z,97064.78
2023-09-22T20:29:53.722Z,97067.53
2023-09-22T20:33:56.041Z,97065.31
2023-09-22T20:37:58.195Z,97064.53
2023-09-22T20:42:00.579Z,97060.66
2023-09-22T20:46:02.746Z,97076.81
2023-09-22T20:50:05.348Z,97067.75
2023-09-22T20:54:12.757Z,97087.47
2023-09-22T20:58:14.985Z,97086.81
2023-09-22T21:02:18.813Z,97079.22
2023-09-22T21:06:20.968Z,97075.19
2023-09-22T21:10:24.498Z,97084.09
2023-09-22T21:14:26.635Z,97077.28
2023-09-22T21:18:31.413Z,97087.03
2023-09-22T21:22:33.459Z,97094.91
2023-09-22T21:26:39.656Z,97103.06
2023-09-22T21:30:46.499Z,97111.81
2023-09-22T21:34:48.637Z,97096.81
2023-09-22T21:38:54.917Z,97102.63
2023-09-22T21:42:57.685Z,97111.91
2023-09-22T21:47:01.195Z,97118.53
2023-09-22T21:51:06.341Z,97124.97
2023-09-22T21:55:09.564Z,97121.72
2023-09-22T21:59:11.740Z,97128.91
2023-09-22T22:03:13.961Z,97140.78
2023-09-22T22:07:16.149Z,97138.25
2023-09-22T22:11:20.895Z,97145.28
2023-09-22T22:15:23.123Z,97143.13
2023-09-22T22:19:25.217Z,97162.28
2023-09-22T22:23:27.346Z,97162.28
2023-09-22T22:27:29.747Z,97164.00
2023-09-22T22:31:31.909Z,97184.81
2023-09-22T22:35:36.317Z,97191.47
2023-09-22T22:39:38.372Z,97198.91
2023-09-22T22:43:40.646Z,97203.81
2023-09-22T22:47:42.931Z,97209.91
2023-09-22T22:51:45.127Z,97217.16
2023-09-22T22:55:47.253Z,97215.41
2023-09-22T22:59:49.628Z,97226.63
2023-09-22T23:03:51.800Z,97227.31
2023-09-22T23:07:54.206Z,97234.34
2023-09-22T23:11:56.261Z,97239.44
2023-09-22T23:16:05.119Z,97245.22
2023-09-22T23:20:10.270Z,97253.66
2023-09-22T23:24:15.890Z,97256.66
2023-09-22T23:28:17.936Z,97254.22
2023-09-22T23:32:19.967Z,97269.19
2023-09-22T23:36:22.336Z,97258.69
2023-09-22T23:40:24.642Z,97265.16
2023-09-22T23:44:26.854Z,97267.75
2023-09-22T23:48:29.395Z,97291.97
2023-09-22T23:52:31.561Z,97293.94
2023-09-22T23:56:36.386Z,97307.75
